sensor_id;sensor_type;location;lat;lon;timestamp;P1;durP1;ratioP1;P2;durP2;ratioP2
27622;SDS011;15041;45.334;5.622;2022-08-05T00:02:22;2.60;;;1.83;;
27622;SDS011;15041;45.334;5.622;2022-08-05T00:04:49;3.17;;;1.85;;
27622;SDS011;15041;45.334;5.622;2022-08-05T00:07:17;2.22;;;2.03;;
27622;SDS011;15041;45.334;5.622;2022-08-05T00:09:44;2.17;;;1.65;;
27622;SDS011;15041;45.334;5.622;2022-08-05T00:12:11;2.20;;;1.80;;
27622;SDS011;15041;45.334;5.622;2022-08-05T00:14:39;2.03;;;1.88;;
27622;SDS011;15041;45.334;5.622;2022-08-05T00:17:06;2.30;;;2.03;;
27622;SDS011;15041;45.334;5.622;2022-08-05T00:19:33;1.80;;;1.70;;
27622;SDS011;15041;45.334;5.622;2022-08-05T00:22:00;1.80;;;1.63;;
27622;SDS011;15041;45.334;5.622;2022-08-05T00:24:29;2.63;;;1.90;;
27622;SDS011;15041;45.334;5.622;2022-08-05T00:26:56;2.25;;;2.03;;
27622;SDS011;15041;45.334;5.622;2022-08-05T00:29:24;3.97;;;1.80;;
27622;SDS011;15041;45.334;5.622;2022-08-05T00:31:51;1.63;;;1.52;;
27622;SDS011;15041;45.334;5.622;2022-08-05T00:34:18;2.60;;;1.70;;
27622;SDS011;15041;45.334;5.622;2022-08-05T00:36:45;2.90;;;1.90;;
27622;SDS011;15041;45.334;5.622;2022-08-05T00:39:13;2.03;;;1.77;;
27622;SDS011;15041;45.334;5.622;2022-08-05T00:41:44;2.90;;;2.20;;
27622;SDS011;15041;45.334;5.622;2022-08-05T00:44:12;1.95;;;1.75;;
27622;SDS011;15041;45.334;5.622;2022-08-05T00:46:39;2.35;;;1.88;;
27622;SDS011;15041;45.334;5.622;2022-08-05T00:49:07;2.13;;;2.00;;
27622;SDS011;15041;45.334;5.622;2022-08-05T00:51:34;2.20;;;1.98;;
27622;SDS011;15041;45.334;5.622;2022-08-05T00:54:01;1.95;;;1.83;;
27622;SDS011;15041;45.334;5.622;2022-08-05T00:56:29;1.83;;;1.73;;
27622;SDS011;15041;45.334;5.622;2022-08-05T00:58:57;3.00;;;2.38;;
27622;SDS011;15041;45.334;5.622;2022-08-05T01:01:26;2.75;;;2.03;;
27622;SDS011;15041;45.334;5.622;2022-08-05T01:03:53;7.95;;;2.00;;
27622;SDS011;15041;45.334;5.622;2022-08-05T01:06:20;2.40;;;1.95;;
27622;SDS011;15041;45.334;5.622;2022-08-05T01:08:48;3.70;;;1.88;;
27622;SDS011;15041;45.334;5.622;2022-08-05T01:11:16;2.63;;;1.98;;
27622;SDS011;15041;45.334;5.622;2022-08-05T01:13:47;2.05;;;1.90;;
27622;SDS011;15041;45.334;5.622;2022-08-05T01:16:32;5.28;;;1.75;;
27622;SDS011;15041;45.334;5.622;2022-08-05T01:19:08;2.22;;;1.90;;
27622;SDS011;15041;45.334;5.622;2022-08-05T01:21:54;3.00;;;1.80;;
27622;SDS011;15041;45.334;5.622;2022-08-05T01:24:45;3.47;;;1.65;;
27622;SDS011;15041;45.334;5.622;2022-08-05T01:27:23;3.35;;;2.00;;
27622;SDS011;15041;45.334;5.622;2022-08-05T01:30:00;1.95;;;1.80;;
27622;SDS011;15041;45.334;5.622;2022-08-05T01:32:30;2.42;;;1.90;;
27622;SDS011;15041;45.334;5.622;2022-08-05T01:35:01;1.92;;;1.80;;
27622;SDS011;15041;45.334;5.622;2022-08-05T01:37:33;4.10;;;1.80;;
27622;SDS011;15041;45.334;5.622;2022-08-05T01:40:04;2.47;;;1.75;;
27622;SDS011;15041;45.334;5.622;2022-08-05T01:42:34;2.13;;;2.00;;
27622;SDS011;15041;45.334;5.622;2022-08-05T01:45:05;2.45;;;2.08;;
27622;SDS011;15041;45.334;5.622;2022-08-05T01:47:34;3.70;;;1.98;;
27622;SDS011;15041;45.334;5.622;2022-08-05T01:50:04;4.20;;;1.90;;
27622;SDS011;15041;45.334;5.622;2022-08-05T01:52:35;2.05;;;1.88;;
27622;SDS011;15041;45.334;5.622;2022-08-05T01:55:05;2.17;;;2.05;;
27622;SDS011;15041;45.334;5.622;2022-08-05T01:57:37;4.97;;;2.60;;
27622;SDS011;15041;45.334;5.622;2022-08-05T02:00:08;4.15;;;2.00;;
27622;SDS011;15041;45.334;5.622;2022-08-05T02:02:38;6.90;;;2.20;;
27622;SDS011;15041;45.334;5.622;2022-08-05T02:05:09;1.92;;;1.73;;
27622;SDS011;15041;45.334;5.622;2022-08-05T02:07:38;2.58;;;2.30;;
27622;SDS011;15041;45.334;5.622;2022-08-05T02:10:08;2.22;;;2.13;;
27622;SDS011;15041;45.334;5.622;2022-08-05T02:12:37;4.95;;;2.40;;
27622;SDS011;15041;45.334;5.622;2022-08-05T02:15:13;6.05;;;2.38;;
27622;SDS011;15041;45.334;5.622;2022-08-05T02:17:44;2.80;;;2.20;;
27622;SDS011;15041;45.334;5.622;2022-08-05T02:20:17;6.07;;;2.53;;
27622;SDS011;15041;45.334;5.622;2022-08-05T02:22:49;2.28;;;2.15;;
27622;SDS011;15041;45.334;5.622;2022-08-05T02:25:24;6.88;;;2.60;;
27622;SDS011;15041;45.334;5.622;2022-08-05T02:27:53;2.63;;;2.42;;
27622;SDS011;15041;45.334;5.622;2022-08-05T02:30:24;2.72;;;2.15;;
27622;SDS011;15041;45.334;5.622;2022-08-05T02:32:54;2.42;;;2.22;;
27622;SDS011;15041;45.334;5.622;2022-08-05T02:35:22;4.10;;;2.42;;
27622;SDS011;15041;45.334;5.622;2022-08-05T02:37:52;3.15;;;2.55;;
27622;SDS011;15041;45.334;5.622;2022-08-05T02:40:21;4.63;;;2.55;;
27622;SDS011;15041;45.334;5.622;2022-08-05T02:42:50;3.70;;;2.63;;
27622;SDS011;15041;45.334;5.622;2022-08-05T02:45:19;2.50;;;2.30;;
27622;SDS011;15041;45.334;5.622;2022-08-05T02:47:49;4.20;;;2.42;;
27622;SDS011;15041;45.334;5.622;2022-08-05T02:50:19;2.55;;;2.30;;
27622;SDS011;15041;45.334;5.622;2022-08-05T02:52:48;2.50;;;2.30;;
27622;SDS011;15041;45.334;5.622;2022-08-05T02:55:18;5.80;;;2.83;;
27622;SDS011;15041;45.334;5.622;2022-08-05T02:57:45;2.58;;;2.45;;
27622;SDS011;15041;45.334;5.622;2022-08-05T03:00:14;3.88;;;2.70;;
27622;SDS011;15041;45.334;5.622;2022-08-05T03:02:42;3.33;;;2.72;;
27622;SDS011;15041;45.334;5.622;2022-08-05T03:05:13;4.18;;;3.00;;
27622;SDS011;15041;45.334;5.622;2022-08-05T03:07:41;3.85;;;2.50;;
27622;SDS011;15041;45.334;5.622;2022-08-05T03:10:09;3.28;;;2.20;;
27622;SDS011;15041;45.334;5.622;2022-08-05T03:12:37;4.82;;;2.50;;
27622;SDS011;15041;45.334;5.622;2022-08-05T03:15:06;5.20;;;2.50;;
27622;SDS011;15041;45.334;5.622;2022-08-05T03:17:35;2.10;;;2.00;;
27622;SDS011;15041;45.334;5.622;2022-08-05T03:20:03;2.85;;;2.15;;
27622;SDS011;15041;45.334;5.622;2022-08-05T03:22:33;2.38;;;2.28;;
27622;SDS011;15041;45.334;5.622;2022-08-05T03:25:00;2.30;;;2.10;;
27622;SDS011;15041;45.334;5.622;2022-08-05T03:27:27;3.63;;;2.67;;
27622;SDS011;15041;45.334;5.622;2022-08-05T03:29:56;2.33;;;2.05;;
27622;SDS011;15041;45.334;5.622;2022-08-05T03:32:24;2.40;;;2.20;;
27622;SDS011;15041;45.334;5.622;2022-08-05T03:34:51;2.97;;;2.60;;
27622;SDS011;15041;45.334;5.622;2022-08-05T03:37:18;2.50;;;2.13;;
27622;SDS011;15041;45.334;5.622;2022-08-05T03:39:57;4.60;;;2.22;;
27622;SDS011;15041;45.334;5.622;2022-08-05T03:42:26;2.25;;;2.05;;
27622;SDS011;15041;45.334;5.622;2022-08-05T03:44:54;3.38;;;2.10;;
27622;SDS011;15041;45.334;5.622;2022-08-05T03:47:21;2.47;;;2.10;;
27622;SDS011;15041;45.334;5.622;2022-08-05T03:49:48;2.30;;;2.15;;
27622;SDS011;15041;45.334;5.622;2022-08-05T03:52:17;4.28;;;2.22;;
27622;SDS011;15041;45.334;5.622;2022-08-05T03:54:49;3.88;;;2.45;;
27622;SDS011;15041;45.334;5.622;2022-08-05T03:57:23;2.92;;;2.00;;
27622;SDS011;15041;45.334;5.622;2022-08-05T03:59:54;3.80;;;2.38;;
27622;SDS011;15041;45.334;5.622;2022-08-05T04:02:25;3.00;;;2.60;;
27622;SDS011;15041;45.334;5.622;2022-08-05T04:04:55;2.40;;;2.20;;
27622;SDS011;15041;45.334;5.622;2022-08-05T04:07:24;5.78;;;2.78;;
27622;SDS011;15041;45.334;5.622;2022-08-05T04:09:52;3.45;;;2.05;;
27622;SDS011;15041;45.334;5.622;2022-08-05T04:12:20;3.33;;;2.33;;
27622;SDS011;15041;45.334;5.622;2022-08-05T04:14:49;3.55;;;2.20;;
27622;SDS011;15041;45.334;5.622;2022-08-05T04:17:16;3.72;;;2.33;;
27622;SDS011;15041;45.334;5.622;2022-08-05T04:19:44;3.70;;;2.63;;
27622;SDS011;15041;45.334;5.622;2022-08-05T04:22:12;4.05;;;2.97;;
27622;SDS011;15041;45.334;5.622;2022-08-05T04:24:40;2.20;;;2.10;;
27622;SDS011;15041;45.334;5.622;2022-08-05T04:27:09;3.45;;;2.65;;
27622;SDS011;15041;45.334;5.622;2022-08-05T04:29:36;2.60;;;2.40;;
27622;SDS011;15041;45.334;5.622;2022-08-05T04:32:05;3.58;;;2.90;;
27622;SDS011;15041;45.334;5.622;2022-08-05T04:34:33;5.15;;;2.58;;
27622;SDS011;15041;45.334;5.622;2022-08-05T04:37:00;3.45;;;2.58;;
27622;SDS011;15041;45.334;5.622;2022-08-05T04:39:28;3.22;;;2.35;;
27622;SDS011;15041;45.334;5.622;2022-08-05T04:41:55;5.25;;;2.60;;
27622;SDS011;15041;45.334;5.622;2022-08-05T04:44:22;2.95;;;2.63;;
27622;SDS011;15041;45.334;5.622;2022-08-05T04:46:49;3.60;;;2.47;;
27622;SDS011;15041;45.334;5.622;2022-08-05T04:49:18;6.18;;;2.90;;
27622;SDS011;15041;45.334;5.622;2022-08-05T04:51:45;3.53;;;2.63;;
27622;SDS011;15041;45.334;5.622;2022-08-05T04:54:12;3.20;;;2.78;;
27622;SDS011;15041;45.334;5.622;2022-08-05T04:56:39;4.47;;;2.92;;
27622;SDS011;15041;45.334;5.622;2022-08-05T04:59:07;2.63;;;2.42;;
27622;SDS011;15041;45.334;5.622;2022-08-05T05:01:34;16.83;;;3.42;;
27622;SDS011;15041;45.334;5.622;2022-08-05T05:04:01;8.85;;;3.35;;
27622;SDS011;15041;45.334;5.622;2022-08-05T05:06:30;18.63;;;3.63;;
27622;SDS011;15041;45.334;5.622;2022-08-05T05:08:57;15.88;;;3.70;;
27622;SDS011;15041;45.334;5.622;2022-08-05T05:11:24;18.30;;;4.40;;
27622;SDS011;15041;45.334;5.622;2022-08-05T05:13:51;17.75;;;4.18;;
27622;SDS011;15041;45.334;5.622;2022-08-05T05:16:18;16.63;;;4.60;;
27622;SDS011;15041;45.334;5.622;2022-08-05T05:18:45;21.00;;;3.90;;
27622;SDS011;15041;45.334;5.622;2022-08-05T05:21:12;13.15;;;4.30;;
27622;SDS011;15041;45.334;5.622;2022-08-05T05:23:41;15.23;;;3.65;;
27622;SDS011;15041;45.334;5.622;2022-08-05T05:26:08;16.98;;;3.80;;
27622;SDS011;15041;45.334;5.622;2022-08-05T05:28:35;14.35;;;4.18;;
27622;SDS011;15041;45.334;5.622;2022-08-05T05:31:02;7.63;;;3.60;;
27622;SDS011;15041;45.334;5.622;2022-08-05T05:33:29;9.60;;;3.60;;
27622;SDS011;15041;45.334;5.622;2022-08-05T05:35:57;12.05;;;3.58;;
27622;SDS011;15041;45.334;5.622;2022-08-05T05:38:24;18.85;;;4.47;;
27622;SDS011;15041;45.334;5.622;2022-08-05T05:40:52;17.23;;;4.13;;
27622;SDS011;15041;45.334;5.622;2022-08-05T05:43:20;7.47;;;3.72;;
27622;SDS011;15041;45.334;5.622;2022-08-05T05:45:47;13.57;;;3.67;;
27622;SDS011;15041;45.334;5.622;2022-08-05T05:48:14;10.30;;;3.78;;
27622;SDS011;15041;45.334;5.622;2022-08-05T05:50:41;6.20;;;3.13;;
27622;SDS011;15041;45.334;5.622;2022-08-05T05:53:08;22.10;;;4.75;;
27622;SDS011;15041;45.334;5.622;2022-08-05T05:55:35;15.13;;;3.90;;
27622;SDS011;15041;45.334;5.622;2022-08-05T05:58:04;15.68;;;4.05;;
27622;SDS011;15041;45.334;5.622;2022-08-05T06:00:31;9.05;;;2.95;;
27622;SDS011;15041;45.334;5.622;2022-08-05T06:02:59;11.32;;;3.45;;
27622;SDS011;15041;45.334;5.622;2022-08-05T06:05:27;7.22;;;3.33;;
27622;SDS011;15041;45.334;5.622;2022-08-05T06:07:54;10.05;;;3.63;;
27622;SDS011;15041;45.334;5.622;2022-08-05T06:10:21;12.48;;;3.83;;
27622;SDS011;15041;45.334;5.622;2022-08-05T06:12:48;9.00;;;3.15;;
27622;SDS011;15041;45.334;5.622;2022-08-05T06:15:17;10.25;;;3.28;;
27622;SDS011;15041;45.334;5.622;2022-08-05T06:17:44;7.53;;;3.72;;
27622;SDS011;15041;45.334;5.622;2022-08-05T06:20:11;12.30;;;4.40;;
27622;SDS011;15041;45.334;5.622;2022-08-05T06:22:38;16.83;;;4.20;;
27622;SDS011;15041;45.334;5.622;2022-08-05T06:25:06;8.88;;;3.40;;
27622;SDS011;15041;45.334;5.622;2022-08-05T06:27:33;13.50;;;4.57;;
27622;SDS011;15041;45.334;5.622;2022-08-05T06:30:01;16.88;;;3.95;;
27622;SDS011;15041;45.334;5.622;2022-08-05T06:32:30;11.48;;;3.70;;
27622;SDS011;15041;45.334;5.622;2022-08-05T06:34:57;21.00;;;4.45;;
27622;SDS011;15041;45.334;5.622;2022-08-05T06:37:24;18.35;;;4.00;;
27622;SDS011;15041;45.334;5.622;2022-08-05T06:39:51;14.43;;;3.78;;
27622;SDS011;15041;45.334;5.622;2022-08-05T06:42:19;12.80;;;4.00;;
27622;SDS011;15041;45.334;5.622;2022-08-05T06:44:46;7.88;;;3.78;;
27622;SDS011;15041;45.334;5.622;2022-08-05T06:47:13;9.75;;;3.97;;
27622;SDS011;15041;45.334;5.622;2022-08-05T06:49:41;4.18;;;3.78;;
27622;SDS011;15041;45.334;5.622;2022-08-05T06:52:09;4.93;;;3.38;;
27622;SDS011;15041;45.334;5.622;2022-08-05T06:54:36;5.85;;;3.83;;
27622;SDS011;15041;45.334;5.622;2022-08-05T06:57:03;5.50;;;3.47;;
27622;SDS011;15041;45.334;5.622;2022-08-05T06:59:30;5.85;;;3.28;;
27622;SDS011;15041;45.334;5.622;2022-08-05T07:01:57;3.13;;;2.83;;
27622;SDS011;15041;45.334;5.622;2022-08-05T07:04:24;5.75;;;3.60;;
27622;SDS011;15041;45.334;5.622;2022-08-05T07:06:53;5.07;;;3.47;;
27622;SDS011;15041;45.334;5.622;2022-08-05T07:09:20;7.45;;;3.75;;
27622;SDS011;15041;45.334;5.622;2022-08-05T07:11:47;20.50;;;4.93;;
27622;SDS011;15041;45.334;5.622;2022-08-05T07:14:15;28.80;;;5.68;;
27622;SDS011;15041;45.334;5.622;2022-08-05T07:17:00;33.13;;;11.93;;
27622;SDS011;15041;45.334;5.622;2022-08-05T07:19:27;14.40;;;3.88;;
27622;SDS011;15041;45.334;5.622;2022-08-05T07:21:56;8.25;;;3.05;;
27622;SDS011;15041;45.334;5.622;2022-08-05T07:24:23;7.32;;;3.20;;
27622;SDS011;15041;45.334;5.622;2022-08-05T07:26:51;7.57;;;3.30;;
27622;SDS011;15041;45.334;5.622;2022-08-05T07:29:18;6.70;;;3.35;;
27622;SDS011;15041;45.334;5.622;2022-08-05T07:31:45;8.02;;;3.17;;
27622;SDS011;15041;45.334;5.622;2022-08-05T07:34:12;3.60;;;2.63;;
27622;SDS011;15041;45.334;5.622;2022-08-05T07:36:39;4.25;;;2.75;;
27622;SDS011;15041;45.334;5.622;2022-08-05T07:39:08;5.43;;;2.97;;
27622;SDS011;15041;45.334;5.622;2022-08-05T07:41:35;3.28;;;2.58;;
27622;SDS011;15041;45.334;5.622;2022-08-05T07:44:03;4.10;;;2.53;;
27622;SDS011;15041;45.334;5.622;2022-08-05T07:46:32;2.75;;;2.50;;
27622;SDS011;15041;45.334;5.622;2022-08-05T07:48:59;6.28;;;2.85;;
27622;SDS011;15041;45.334;5.622;2022-08-05T07:51:27;5.32;;;3.38;;
27622;SDS011;15041;45.334;5.622;2022-08-05T07:53:54;4.07;;;2.50;;
27622;SDS011;15041;45.334;5.622;2022-08-05T07:56:24;3.95;;;3.33;;
27622;SDS011;15041;45.334;5.622;2022-08-05T07:58:51;4.60;;;3.10;;
27622;SDS011;15041;45.334;5.622;2022-08-05T08:01:18;7.18;;;2.58;;
27622;SDS011;15041;45.334;5.622;2022-08-05T08:03:49;4.10;;;2.80;;
27622;SDS011;15041;45.334;5.622;2022-08-05T08:06:16;8.68;;;3.28;;
27622;SDS011;15041;45.334;5.622;2022-08-05T08:08:43;8.95;;;3.50;;
27622;SDS011;15041;45.334;5.622;2022-08-05T08:11:10;57.88;;;6.80;;
27622;SDS011;15041;45.334;5.622;2022-08-05T08:13:40;38.03;;;5.53;;
27622;SDS011;15041;45.334;5.622;2022-08-05T08:16:08;35.83;;;5.05;;
27622;SDS011;15041;45.334;5.622;2022-08-05T08:18:35;22.33;;;4.30;;
27622;SDS011;15041;45.334;5.622;2022-08-05T08:21:04;17.60;;;3.78;;
27622;SDS011;15041;45.334;5.622;2022-08-05T08:23:31;15.13;;;3.63;;
27622;SDS011;15041;45.334;5.622;2022-08-05T08:26:00;15.48;;;4.20;;
27622;SDS011;15041;45.334;5.622;2022-08-05T08:28:28;7.32;;;3.00;;
27622;SDS011;15041;45.334;5.622;2022-08-05T08:30:57;8.23;;;3.67;;
27622;SDS011;15041;45.334;5.622;2022-08-05T08:33:24;12.32;;;3.28;;
27622;SDS011;15041;45.334;5.622;2022-08-05T08:35:51;7.38;;;2.85;;
27622;SDS011;15041;45.334;5.622;2022-08-05T08:38:18;10.32;;;3.25;;
27622;SDS011;15041;45.334;5.622;2022-08-05T08:40:45;11.02;;;3.65;;
27622;SDS011;15041;45.334;5.622;2022-08-05T08:43:13;6.53;;;3.28;;
27622;SDS011;15041;45.334;5.622;2022-08-05T08:45:44;11.18;;;3.58;;
27622;SDS011;15041;45.334;5.622;2022-08-05T08:48:16;7.82;;;3.22;;
27622;SDS011;15041;45.334;5.622;2022-08-05T08:50:46;7.20;;;3.25;;
27622;SDS011;15041;45.334;5.622;2022-08-05T08:53:14;5.18;;;3.33;;
27622;SDS011;15041;45.334;5.622;2022-08-05T08:55:42;9.52;;;3.15;;
27622;SDS011;15041;45.334;5.622;2022-08-05T08:58:10;5.45;;;3.45;;
27622;SDS011;15041;45.334;5.622;2022-08-05T09:00:41;7.22;;;3.33;;
27622;SDS011;15041;45.334;5.622;2022-08-05T09:03:08;8.55;;;3.55;;
27622;SDS011;15041;45.334;5.622;2022-08-05T09:05:37;6.90;;;3.30;;
27622;SDS011;15041;45.334;5.622;2022-08-05T09:08:04;8.40;;;3.47;;
27622;SDS011;15041;45.334;5.622;2022-08-05T09:10:32;8.15;;;3.42;;
27622;SDS011;15041;45.334;5.622;2022-08-05T09:12:59;9.48;;;3.35;;
27622;SDS011;15041;45.334;5.622;2022-08-05T09:15:27;6.50;;;3.67;;
27622;SDS011;15041;45.334;5.622;2022-08-05T09:17:54;11.38;;;3.58;;
27622;SDS011;15041;45.334;5.622;2022-08-05T09:20:21;3.22;;;3.03;;
27622;SDS011;15041;45.334;5.622;2022-08-05T09:23:09;6.13;;;3.42;;
27622;SDS011;15041;45.334;5.622;2022-08-05T09:25:38;5.63;;;3.80;;
27622;SDS011;15041;45.334;5.622;2022-08-05T09:28:10;10.52;;;3.65;;
27622;SDS011;15041;45.334;5.622;2022-08-05T09:30:43;5.82;;;3.47;;
27622;SDS011;15041;45.334;5.622;2022-08-05T09:33:18;6.95;;;3.67;;
27622;SDS011;15041;45.334;5.622;2022-08-05T09:35:54;4.43;;;3.83;;
27622;SDS011;15041;45.334;5.622;2022-08-05T09:38:23;6.68;;;3.67;;
27622;SDS011;15041;45.334;5.622;2022-08-05T09:40:51;6.82;;;3.53;;
27622;SDS011;15041;45.334;5.622;2022-08-05T09:43:24;8.27;;;3.78;;
27622;SDS011;15041;45.334;5.622;2022-08-05T09:45:53;9.48;;;4.20;;
27622;SDS011;15041;45.334;5.622;2022-08-05T09:48:21;10.15;;;4.55;;
27622;SDS011;15041;45.334;5.622;2022-08-05T09:50:52;12.48;;;4.25;;
27622;SDS011;15041;45.334;5.622;2022-08-05T09:53:20;5.07;;;3.75;;
27622;SDS011;15041;45.334;5.622;2022-08-05T09:55:53;6.93;;;3.85;;
27622;SDS011;15041;45.334;5.622;2022-08-05T09:58:22;14.65;;;3.63;;
27622;SDS011;15041;45.334;5.622;2022-08-05T10:00:51;7.22;;;3.22;;
27622;SDS011;15041;45.334;5.622;2022-08-05T10:03:19;3.70;;;3.20;;
27622;SDS011;15041;45.334;5.622;2022-08-05T10:05:59;5.13;;;4.13;;
27622;SDS011;15041;45.334;5.622;2022-08-05T10:08:30;4.50;;;3.58;;
27622;SDS011;15041;45.334;5.622;2022-08-05T10:10:59;5.03;;;3.35;;
27622;SDS011;15041;45.334;5.622;2022-08-05T10:13:29;7.82;;;3.10;;
27622;SDS011;15041;45.334;5.622;2022-08-05T10:15:58;2.78;;;2.58;;
27622;SDS011;15041;45.334;5.622;2022-08-05T10:18:25;3.60;;;2.65;;
27622;SDS011;15041;45.334;5.622;2022-08-05T10:20:57;4.72;;;2.97;;
27622;SDS011;15041;45.334;5.622;2022-08-05T10:23:26;6.25;;;2.65;;
27622;SDS011;15041;45.334;5.622;2022-08-05T10:25:55;2.97;;;2.75;;
27622;SDS011;15041;45.334;5.622;2022-08-05T10:28:24;3.22;;;2.38;;
27622;SDS011;15041;45.334;5.622;2022-08-05T10:30:51;2.60;;;2.40;;
27622;SDS011;15041;45.334;5.622;2022-08-05T10:33:19;3.33;;;2.55;;
27622;SDS011;15041;45.334;5.622;2022-08-05T10:35:48;2.90;;;2.70;;
27622;SDS011;15041;45.334;5.622;2022-08-05T10:38:17;3.50;;;2.40;;
27622;SDS011;15041;45.334;5.622;2022-08-05T10:40:50;6.95;;;2.40;;
27622;SDS011;15041;45.334;5.622;2022-08-05T10:43:27;5.15;;;2.75;;
27622;SDS011;15041;45.334;5.622;2022-08-05T10:46:05;2.95;;;2.40;;
27622;SDS011;15041;45.334;5.622;2022-08-05T10:48:35;3.20;;;2.90;;
27622;SDS011;15041;45.334;5.622;2022-08-05T10:51:04;2.90;;;2.50;;
27622;SDS011;15041;45.334;5.622;2022-08-05T10:53:35;2.67;;;2.47;;
27622;SDS011;15041;45.334;5.622;2022-08-05T10:56:05;2.95;;;2.42;;
27622;SDS011;15041;45.334;5.622;2022-08-05T10:58:35;6.25;;;2.95;;
27622;SDS011;15041;45.334;5.622;2022-08-05T11:01:13;4.07;;;2.53;;
27622;SDS011;15041;45.334;5.622;2022-08-05T11:04:00;6.00;;;2.55;;
27622;SDS011;15041;45.334;5.622;2022-08-05T11:06:30;4.95;;;2.53;;
27622;SDS011;15041;45.334;5.622;2022-08-05T11:09:16;3.25;;;2.95;;
27622;SDS011;15041;45.334;5.622;2022-08-05T11:11:45;3.83;;;2.80;;
27622;SDS011;15041;45.334;5.622;2022-08-05T11:14:22;2.80;;;2.60;;
27622;SDS011;15041;45.334;5.622;2022-08-05T11:19:54;4.47;;;2.75;;
27622;SDS011;15041;45.334;5.622;2022-08-05T11:22:37;6.15;;;2.70;;
27622;SDS011;15041;45.334;5.622;2022-08-05T11:27:55;7.80;;;3.10;;
27622;SDS011;15041;45.334;5.622;2022-08-05T11:30:24;7.15;;;3.20;;
27622;SDS011;15041;45.334;5.622;2022-08-05T11:35:52;5.40;;;2.65;;
27622;SDS011;15041;45.334;5.622;2022-08-05T11:38:34;4.65;;;2.90;;
27622;SDS011;15041;45.334;5.622;2022-08-05T11:41:19;3.30;;;2.88;;
27622;SDS011;15041;45.334;5.622;2022-08-05T11:43:54;4.45;;;3.20;;
27622;SDS011;15041;45.334;5.622;2022-08-05T11:46:27;3.97;;;2.90;;
27622;SDS011;15041;45.334;5.622;2022-08-05T11:48:56;3.28;;;2.67;;
27622;SDS011;15041;45.334;5.622;2022-08-05T11:51:25;3.00;;;2.60;;
27622;SDS011;15041;45.334;5.622;2022-08-05T11:53:54;4.13;;;2.80;;
27622;SDS011;15041;45.334;5.622;2022-08-05T11:56:22;5.78;;;2.83;;
27622;SDS011;15041;45.334;5.622;2022-08-05T11:58:49;10.35;;;2.97;;
27622;SDS011;15041;45.334;5.622;2022-08-05T12:01:17;4.30;;;2.80;;
27622;SDS011;15041;45.334;5.622;2022-08-05T12:03:48;6.68;;;2.65;;
27622;SDS011;15041;45.334;5.622;2022-08-05T12:06:20;8.23;;;3.08;;
27622;SDS011;15041;45.334;5.622;2022-08-05T12:08:49;3.63;;;2.75;;
27622;SDS011;15041;45.334;5.622;2022-08-05T12:11:17;3.42;;;2.60;;
27622;SDS011;15041;45.334;5.622;2022-08-05T12:13:52;5.68;;;2.70;;
27622;SDS011;15041;45.334;5.622;2022-08-05T12:16:20;2.50;;;2.30;;
27622;SDS011;15041;45.334;5.622;2022-08-05T12:18:50;2.92;;;2.70;;
27622;SDS011;15041;45.334;5.622;2022-08-05T12:21:18;4.57;;;2.78;;
27622;SDS011;15041;45.334;5.622;2022-08-05T12:23:53;7.88;;;2.80;;
27622;SDS011;15041;45.334;5.622;2022-08-05T12:26:23;3.33;;;3.00;;
27622;SDS011;15041;45.334;5.622;2022-08-05T12:28:55;3.20;;;2.50;;
27622;SDS011;15041;45.334;5.622;2022-08-05T12:31:22;5.95;;;2.50;;
27622;SDS011;15041;45.334;5.622;2022-08-05T12:33:51;4.30;;;2.90;;
27622;SDS011;15041;45.334;5.622;2022-08-05T12:36:19;2.83;;;2.63;;
27622;SDS011;15041;45.334;5.622;2022-08-05T12:38:46;2.80;;;2.60;;
27622;SDS011;15041;45.334;5.622;2022-08-05T12:41:14;3.30;;;2.92;;
27622;SDS011;15041;45.334;5.622;2022-08-05T12:43:50;2.95;;;2.33;;
27622;SDS011;15041;45.334;5.622;2022-08-05T12:46:19;4.80;;;2.80;;
27622;SDS011;15041;45.334;5.622;2022-08-05T12:48:56;6.68;;;2.72;;
27622;SDS011;15041;45.334;5.622;2022-08-05T12:51:24;4.10;;;2.85;;
27622;SDS011;15041;45.334;5.622;2022-08-05T12:53:57;2.92;;;2.55;;
27622;SDS011;15041;45.334;5.622;2022-08-05T12:56:26;3.95;;;2.90;;
27622;SDS011;15041;45.334;5.622;2022-08-05T12:59:10;3.10;;;2.88;;
27622;SDS011;15041;45.334;5.622;2022-08-05T13:01:38;5.43;;;3.00;;
27622;SDS011;15041;45.334;5.622;2022-08-05T13:04:07;2.95;;;2.70;;
27622;SDS011;15041;45.334;5.622;2022-08-05T13:06:39;2.53;;;2.35;;
27622;SDS011;15041;45.334;5.622;2022-08-05T13:09:08;5.22;;;2.85;;
27622;SDS011;15041;45.334;5.622;2022-08-05T13:11:37;3.00;;;2.70;;
27622;SDS011;15041;45.334;5.622;2022-08-05T13:14:19;5.10;;;2.70;;
27622;SDS011;15041;45.334;5.622;2022-08-05T13:16:51;7.18;;;2.88;;
27622;SDS011;15041;45.334;5.622;2022-08-05T13:19:25;2.80;;;2.60;;
27622;SDS011;15041;45.334;5.622;2022-08-05T13:21:54;6.05;;;2.80;;
27622;SDS011;15041;45.334;5.622;2022-08-05T13:24:21;3.45;;;2.80;;
27622;SDS011;15041;45.334;5.622;2022-08-05T13:26:50;2.83;;;2.60;;
27622;SDS011;15041;45.334;5.622;2022-08-05T13:29:17;2.75;;;2.42;;
27622;SDS011;15041;45.334;5.622;2022-08-05T13:31:45;2.65;;;2.42;;
27622;SDS011;15041;45.334;5.622;2022-08-05T13:34:13;3.83;;;2.97;;
27622;SDS011;15041;45.334;5.622;2022-08-05T13:36:42;3.53;;;2.92;;
27622;SDS011;15041;45.334;5.622;2022-08-05T13:39:09;2.85;;;2.63;;
27622;SDS011;15041;45.334;5.622;2022-08-05T13:41:38;3.67;;;3.00;;
27622;SDS011;15041;45.334;5.622;2022-08-05T13:44:05;3.20;;;2.90;;
27622;SDS011;15041;45.334;5.622;2022-08-05T13:46:33;4.60;;;3.05;;
27622;SDS011;15041;45.334;5.622;2022-08-05T13:49:00;4.43;;;2.63;;
27622;SDS011;15041;45.334;5.622;2022-08-05T13:51:28;4.03;;;2.92;;
27622;SDS011;15041;45.334;5.622;2022-08-05T13:53:58;6.07;;;3.00;;
27622;SDS011;15041;45.334;5.622;2022-08-05T13:56:25;3.83;;;3.00;;
27622;SDS011;15041;45.334;5.622;2022-08-05T13:58:52;3.47;;;3.15;;
27622;SDS011;15041;45.334;5.622;2022-08-05T14:01:20;3.45;;;2.70;;
27622;SDS011;15041;45.334;5.622;2022-08-05T14:03:48;4.07;;;2.80;;
27622;SDS011;15041;45.334;5.622;2022-08-05T14:06:29;5.07;;;2.88;;
27622;SDS011;15041;45.334;5.622;2022-08-05T14:08:58;3.22;;;2.80;;
27622;SDS011;15041;45.334;5.622;2022-08-05T14:11:26;3.10;;;2.88;;
27622;SDS011;15041;45.334;5.622;2022-08-05T14:13:54;6.38;;;2.95;;
27622;SDS011;15041;45.334;5.622;2022-08-05T14:16:22;4.07;;;3.10;;
27622;SDS011;15041;45.334;5.622;2022-08-05T14:18:49;4.65;;;3.67;;
27622;SDS011;15041;45.334;5.622;2022-08-05T14:21:17;7.88;;;3.08;;
27622;SDS011;15041;45.334;5.622;2022-08-05T14:23:44;5.60;;;2.95;;
27622;SDS011;15041;45.334;5.622;2022-08-05T14:26:12;5.53;;;3.65;;
27622;SDS011;15041;45.334;5.622;2022-08-05T14:28:39;3.58;;;3.30;;
27622;SDS011;15041;45.334;5.622;2022-08-05T14:31:07;5.72;;;2.83;;
27622;SDS011;15041;45.334;5.622;2022-08-05T14:33:34;5.07;;;3.10;;
27622;SDS011;15041;45.334;5.622;2022-08-05T14:36:02;5.60;;;3.05;;
27622;SDS011;15041;45.334;5.622;2022-08-05T14:38:30;7.07;;;3.00;;
27622;SDS011;15041;45.334;5.622;2022-08-05T14:40:57;8.65;;;3.05;;
27622;SDS011;15041;45.334;5.622;2022-08-05T14:43:25;6.68;;;3.35;;
27622;SDS011;15041;45.334;5.622;2022-08-05T14:45:53;7.97;;;3.60;;
27622;SDS011;15041;45.334;5.622;2022-08-05T14:48:20;7.50;;;3.42;;
27622;SDS011;15041;45.334;5.622;2022-08-05T14:50:47;16.13;;;4.00;;
27622;SDS011;15041;45.334;5.622;2022-08-05T14:53:14;4.90;;;3.42;;
27622;SDS011;15041;45.334;5.622;2022-08-05T14:55:41;7.25;;;3.40;;
27622;SDS011;15041;45.334;5.622;2022-08-05T14:58:08;4.68;;;3.75;;
27622;SDS011;15041;45.334;5.622;2022-08-05T15:00:37;6.57;;;3.20;;
27622;SDS011;15041;45.334;5.622;2022-08-05T15:03:05;6.88;;;3.38;;
27622;SDS011;15041;45.334;5.622;2022-08-05T15:05:32;7.78;;;3.25;;
27622;SDS011;15041;45.334;5.622;2022-08-05T15:08:00;5.03;;;2.97;;